createdAt,value
2019-05-18T00:01:40.962Z,9.50
2019-05-18T00:04:12.560Z,7.70
2019-05-18T00:06:45.823Z,7.97
2019-05-18T00:09:15.837Z,7.80
2019-05-18T00:11:46.132Z,7.40
2019-05-18T00:14:15.635Z,7.87
2019-05-18T00:16:45.476Z,7.58
2019-05-18T00:19:15.168Z,7.47
2019-05-18T00:21:46.331Z,7.60
2019-05-18T00:24:15.761Z,7.17
2019-05-18T00:26:45.107Z,6.22
2019-05-18T00:29:14.367Z,6.90
2019-05-18T00:31:47.842Z,7.17
2019-05-18T00:34:22.919Z,6.40
2019-05-18T00:39:34.089Z,7.23
2019-05-18T00:42:04.781Z,7.80
2019-05-18T00:44:34.615Z,8.60
2019-05-18T00:47:04.299Z,7.63
2019-05-18T00:49:35.193Z,9.50
2019-05-18T00:52:29.391Z,7.83
2019-05-18T00:55:09.478Z,8.20
2019-05-18T00:57:40.612Z,8.80
2019-05-18T01:00:13.151Z,9.38
2019-05-18T01:02:44.908Z,11.07
2019-05-18T01:05:14.842Z,12.83
2019-05-18T01:07:47.644Z,8.50
2019-05-18T01:10:19.969Z,11.10
2019-05-18T01:12:54.162Z,8.83
2019-05-18T01:15:25.844Z,8.37
2019-05-18T01:18:03.127Z,8.33
2019-05-18T01:20:40.172Z,8.00
2019-05-18T01:23:13.993Z,13.10
2019-05-18T01:25:54.973Z,8.70
2019-05-18T01:28:28.490Z,8.30
2019-05-18T01:31:00.951Z,8.07
2019-05-18T01:33:30.151Z,6.67
2019-05-18T01:36:03.845Z,8.30
2019-05-18T01:38:41.785Z,8.70
2019-05-18T01:41:14.191Z,9.43
2019-05-18T01:43:45.459Z,8.90
2019-05-18T01:46:29.447Z,8.60
2019-05-18T01:49:02.899Z,7.53
2019-05-18T01:51:33.160Z,8.43
2019-05-18T01:54:04.966Z,7.70
2019-05-18T01:56:34.423Z,8.43
2019-05-18T01:59:04.972Z,8.05
2019-05-18T02:01:37.548Z,7.55
2019-05-18T02:04:06.814Z,7.70
2019-05-18T02:06:36.295Z,8.77
2019-05-18T02:09:13.657Z,7.47
2019-05-18T02:11:50.413Z,8.07
2019-05-18T02:14:22.399Z,8.57
2019-05-18T02:16:52.901Z,7.43
2019-05-18T02:19:24.926Z,8.50
2019-05-18T02:21:58.498Z,7.70
2019-05-18T02:24:28.247Z,8.30
2019-05-18T02:26:59.802Z,7.83
2019-05-18T02:29:32.205Z,12.87
2019-05-18T02:32:03.058Z,12.33
2019-05-18T02:34:43.579Z,14.73
2019-05-18T02:37:13.063Z,11.28
2019-05-18T02:39:42.176Z,12.77
2019-05-18T02:42:13.620Z,15.17
2019-05-18T02:44:43.956Z,11.17
2019-05-18T02:47:13.415Z,11.38
2019-05-18T02:49:42.619Z,11.45
2019-05-18T02:52:13.599Z,9.93
2019-05-18T02:54:44.477Z,10.00
2019-05-18T02:57:14.472Z,11.83
2019-05-18T02:59:48.684Z,12.10
2019-05-18T03:02:22.848Z,9.70
2019-05-18T03:04:54.124Z,11.93
2019-05-18T03:07:28.264Z,11.47
2019-05-18T03:09:57.738Z,12.03
2019-05-18T03:12:27.000Z,10.80
2019-05-18T03:14:56.454Z,9.73
2019-05-18T03:17:29.109Z,8.58
2019-05-18T03:19:58.952Z,11.27
2019-05-18T03:22:28.123Z,9.70
2019-05-18T03:24:57.919Z,12.90
2019-05-18T03:27:28.119Z,11.87
2019-05-18T03:29:57.237Z,11.93
2019-05-18T03:32:26.365Z,11.50
2019-05-18T03:34:55.634Z,11.20
2019-05-18T03:37:25.154Z,14.33
2019-05-18T03:39:54.373Z,16.67
2019-05-18T03:42:23.783Z,19.37
2019-05-18T03:44:54.637Z,18.77
2019-05-18T03:47:24.335Z,20.87
2019-05-18T03:49:53.811Z,20.43
2019-05-18T03:52:22.987Z,21.57
2019-05-18T03:54:52.163Z,22.17
2019-05-18T03:57:21.328Z,24.90
2019-05-18T03:59:50.813Z,22.17
2019-05-18T04:02:20.065Z,22.50
2019-05-18T04:04:49.206Z,24.97
2019-05-18T04:07:18.870Z,26.10
2019-05-18T04:09:54.926Z,29.17
2019-05-18T04:12:25.516Z,24.63
2019-05-18T04:14:55.904Z,24.13
2019-05-18T04:17:29.494Z,24.10
2019-05-18T04:46:26.742Z,18.52
2019-05-18T05:16:48.651Z,15.70
2019-05-18T05:37:07.682Z,18.32
2019-05-18T05:46:41.614Z,16.60
2019-05-18T05:49:31.776Z,18.77
2019-05-18T05:52:02.005Z,17.10
2019-05-18T05:54:31.440Z,18.35
2019-05-18T05:57:05.161Z,17.90
2019-05-18T05:59:35.261Z,19.33
2019-05-18T06:02:08.997Z,17.80
2019-05-18T06:04:41.489Z,20.23
2019-05-18T06:07:10.838Z,18.17
2019-05-18T06:09:43.544Z,17.77
2019-05-18T06:12:14.240Z,17.40
2019-05-18T06:14:46.475Z,16.77
2019-05-18T06:17:20.269Z,21.10
2019-05-18T06:19:50.777Z,15.50
2019-05-18T06:22:22.080Z,15.30
2019-05-18T06:24:59.393Z,17.93
2019-05-18T06:27:29.777Z,16.77
2019-05-18T06:29:59.411Z,16.33
2019-05-18T06:32:30.368Z,19.37
2019-05-18T06:35:14.404Z,16.70
2019-05-18T06:38:22.813Z,16.73
2019-05-18T06:42:05.738Z,17.37
2019-05-18T06:51:07.920Z,17.20
2019-05-18T06:53:43.128Z,19.20
2019-05-18T06:56:45.730Z,13.15
2019-05-18T07:00:53.723Z,14.57
2019-05-18T07:03:34.029Z,16.10
2019-05-18T07:06:13.581Z,19.77
2019-05-18T07:09:13.993Z,13.50
2019-05-18T07:11:42.210Z,13.50
2019-05-18T07:14:25.162Z,13.60
2019-05-18T07:16:51.511Z,12.40
2019-05-18T07:19:23.031Z,11.10
2019-05-18T07:21:58.651Z,12.63
2019-05-18T07:24:31.087Z,11.50
2019-05-18T07:27:02.872Z,13.27
2019-05-18T07:29:40.690Z,10.48
2019-05-18T07:32:15.282Z,11.53
2019-05-18T07:34:55.644Z,10.47
2019-05-18T07:37:28.337Z,10.53
2019-05-18T07:39:59.259Z,10.40
2019-05-18T07:42:35.823Z,10.87
2019-05-18T07:45:07.641Z,10.33
2019-05-18T07:47:39.673Z,11.20
2019-05-18T07:50:16.788Z,10.87
2019-05-18T07:52:52.068Z,10.78
2019-05-18T09:09:22.478Z,7.90
2019-05-18T09:11:52.982Z,8.85
2019-05-18T10:00:58.734Z,4.10
2019-05-18T10:03:32.734Z,5.37
2019-05-18T10:06:04.459Z,4.73
2019-05-18T10:08:33.747Z,4.00
2019-05-18T10:11:03.304Z,4.97
2019-05-18T10:13:32.485Z,5.60
2019-05-18T10:16:01.985Z,4.17
2019-05-18T10:18:31.661Z,3.50
2019-05-18T10:21:00.820Z,4.63
2019-05-18T10:23:30.791Z,4.83
2019-05-18T10:26:00.007Z,4.40
2019-05-18T10:28:30.343Z,4.03
2019-05-18T10:31:04.917Z,3.20
2019-05-18T10:33:34.137Z,4.10
2019-05-18T10:36:03.953Z,3.40
2019-05-18T10:38:33.475Z,3.90
2019-05-18T10:41:03.074Z,4.00
2019-05-18T10:43:32.444Z,3.77
2019-05-18T10:46:02.260Z,4.00
2019-05-18T10:48:33.499Z,3.47
2019-05-18T10:51:05.776Z,3.63
2019-05-18T10:53:35.131Z,3.57
2019-05-18T10:56:04.615Z,3.73
2019-05-18T10:58:33.847Z,3.33
2019-05-18T11:01:03.381Z,3.73
2019-05-18T11:03:33.546Z,3.20
2019-05-18T11:06:02.807Z,3.63
2019-05-18T11:08:33.633Z,3.70
2019-05-18T11:11:03.210Z,3.67
2019-05-18T11:13:32.711Z,2.80
2019-05-18T11:16:01.961Z,3.57
2019-05-18T11:18:31.531Z,3.10
2019-05-18T11:21:00.707Z,2.83
2019-05-18T11:23:42.816Z,3.37
2019-05-18T11:26:00.940Z,2.80
2019-05-18T11:28:30.413Z,3.50
2019-05-18T11:30:59.641Z,3.30
2019-05-18T11:33:28.872Z,3.27
2019-05-18T11:35:58.038Z,3.50
2019-05-18T11:38:27.511Z,3.57
2019-05-18T11:40:57.041Z,2.90
2019-05-18T11:43:26.221Z,3.30
2019-05-18T11:45:55.409Z,4.53
2019-05-18T11:48:24.683Z,3.27
2019-05-18T11:50:53.955Z,3.50
2019-05-18T11:53:23.154Z,3.50
2019-05-18T11:55:52.475Z,2.83
2019-05-18T11:58:21.643Z,3.30
2019-05-18T12:00:51.432Z,3.67
2019-05-18T12:03:20.704Z,3.63
2019-05-18T12:05:50.012Z,2.70
2019-05-18T12:08:19.492Z,3.10
2019-05-18T12:10:48.674Z,3.53
2019-05-18T12:13:17.891Z,2.87
2019-05-18T12:15:47.069Z,2.75
2019-05-18T12:18:16.341Z,2.90
2019-05-18T12:20:45.846Z,3.10
2019-05-18T12:23:15.352Z,2.80
2019-05-18T12:25:45.135Z,2.47
2019-05-18T12:28:15.357Z,3.07
2019-05-18T12:30:47.359Z,2.63
2019-05-18T12:33:17.068Z,3.40
2019-05-18T12:35:46.268Z,2.72
2019-05-18T12:38:15.756Z,3.07
2019-05-18T12:40:48.393Z,3.20
2019-05-18T12:43:17.639Z,3.87
2019-05-18T12:45:46.938Z,2.80
2019-05-18T12:48:16.516Z,3.10
2019-05-18T12:50:46.113Z,2.90
2019-05-18T12:53:17.634Z,3.70
2019-05-18T12:55:46.284Z,3.27
2019-05-18T12:58:15.796Z,4.37
2019-05-18T13:00:47.894Z,3.10
2019-05-18T13:03:19.668Z,3.60
2019-05-18T13:05:55.044Z,2.80
2019-05-18T13:08:24.392Z,3.20
2019-05-18T13:10:54.293Z,2.37
2019-05-18T13:13:23.852Z,1.98
2019-05-18T13:15:56.200Z,3.12
2019-05-18T13:18:25.490Z,2.67
2019-05-18T13:20:54.654Z,3.05
2019-05-18T13:23:24.283Z,3.00
2019-05-18T13:25:53.907Z,3.70
2019-05-18T13:28:23.378Z,4.90
2019-05-18T13:30:52.894Z,3.03
2019-05-18T13:33:22.390Z,2.43
2019-05-18T13:35:52.809Z,2.90
2019-05-18T13:38:22.106Z,5.33
2019-05-18T13:40:51.552Z,2.20
2019-05-18T13:43:28.242Z,2.50
2019-05-18T13:45:57.647Z,3.80
2019-05-18T13:48:35.820Z,2.97
2019-05-18T13:51:05.591Z,3.03
2019-05-18T13:53:35.095Z,2.80
2019-05-18T13:56:06.410Z,4.63
2019-05-18T13:58:35.971Z,3.07
2019-05-18T14:01:05.896Z,6.42
2019-05-18T14:03:35.456Z,3.00
2019-05-18T14:06:04.717Z,3.50
2019-05-18T14:08:33.902Z,3.70
2019-05-18T14:11:03.182Z,5.47
2019-05-18T14:13:33.040Z,14.17
2019-05-18T14:16:02.283Z,4.83
2019-05-18T14:18:31.816Z,32.80
2019-05-18T14:21:01.311Z,42.88
2019-05-18T14:23:30.460Z,5.17
2019-05-18T14:25:59.967Z,6.40
2019-05-18T14:28:29.202Z,3.77
2019-05-18T14:30:59.524Z,3.57
2019-05-18T14:33:28.735Z,3.00
2019-05-18T14:35:57.940Z,4.03
2019-05-18T14:38:27.103Z,4.30
2019-05-18T14:40:56.279Z,5.23
2019-05-18T14:43:25.717Z,2.97
2019-05-18T14:45:54.836Z,3.50
2019-05-18T14:48:24.069Z,3.30
2019-05-18T14:50:53.686Z,3.60
2019-05-18T14:53:22.880Z,3.60
2019-05-18T14:55:52.094Z,3.20
2019-05-18T14:58:21.311Z,3.70
2019-05-18T15:00:50.465Z,3.20
2019-05-18T15:03:19.899Z,3.40
2019-05-18T15:05:49.052Z,3.77
2019-05-18T15:08:18.204Z,5.60
2019-05-18T15:10:47.674Z,3.10
2019-05-18T15:13:16.863Z,3.20
2019-05-18T15:15:46.016Z,3.27
2019-05-18T15:18:15.268Z,3.67
2019-05-18T15:20:44.499Z,4.30
2019-05-18T15:23:13.711Z,3.10
2019-05-18T15:25:50.895Z,3.53
2019-05-18T15:28:17.933Z,3.77
2019-05-18T15:30:47.722Z,3.60
2019-05-18T15:33:17.177Z,2.87
2019-05-18T15:35:46.753Z,3.27
2019-05-18T15:38:15.999Z,3.25
2019-05-18T15:40:48.030Z,3.10
2019-05-18T15:43:17.282Z,3.22
2019-05-18T15:45:46.832Z,2.72
2019-05-18T15:48:15.966Z,4.22
2019-05-18T15:50:45.345Z,2.97
2019-05-18T15:53:14.920Z,3.27
2019-05-18T15:55:44.152Z,2.80
2019-05-18T15:58:13.444Z,2.93
2019-05-18T16:00:42.937Z,3.10
2019-05-18T16:03:12.148Z,3.20
2019-05-18T16:05:41.311Z,2.67
2019-05-18T16:08:10.506Z,2.60
2019-05-18T16:10:40.101Z,2.70
2019-05-18T16:13:09.349Z,3.20
2019-05-18T16:15:38.508Z,2.80
2019-05-18T16:18:07.689Z,2.60
2019-05-18T16:20:36.843Z,2.90
2019-05-18T16:23:06.004Z,2.73
2019-05-18T16:25:35.772Z,2.80
2019-05-18T16:28:05.378Z,2.50
2019-05-18T16:30:34.592Z,2.90
2019-05-18T16:33:03.803Z,2.67
2019-05-18T16:35:33.544Z,2.70
2019-05-18T16:38:02.760Z,2.60
2019-05-18T16:40:32.540Z,2.50
2019-05-18T16:43:01.733Z,2.60
2019-05-18T16:45:31.263Z,2.37
2019-05-18T16:48:00.774Z,3.07
2019-05-18T16:50:30.390Z,2.67
2019-05-18T16:52:59.649Z,2.97
2019-05-18T16:55:28.830Z,2.30
2019-05-18T16:57:58.922Z,2.30
2019-05-18T17:00:28.144Z,3.00
2019-05-18T17:02:57.801Z,3.23
2019-05-18T17:05:27.384Z,2.70
2019-05-18T17:08:00.104Z,3.80
2019-05-18T17:10:30.239Z,2.80
2019-05-18T17:12:59.449Z,2.20
2019-05-18T17:15:28.681Z,2.60
2019-05-18T17:17:58.204Z,2.00
2019-05-18T17:20:27.450Z,1.90
2019-05-18T17:22:56.636Z,2.20
2019-05-18T17:25:25.882Z,2.20
2019-05-18T17:27:55.180Z,2.33
2019-05-18T17:30:24.360Z,2.00
2019-05-18T17:32:53.609Z,3.02
2019-05-18T17:35:23.556Z,1.50
2019-05-18T17:37:53.065Z,1.90
2019-05-18T17:40:22.768Z,2.20
2019-05-18T17:42:52.040Z,1.67
2019-05-18T17:45:21.306Z,2.13
2019-05-18T17:47:51.088Z,1.73
2019-05-18T17:50:20.463Z,2.05
2019-05-18T17:52:49.700Z,1.60
2019-05-18T17:55:18.895Z,1.70
2019-05-18T17:57:48.233Z,1.90
2019-05-18T18:00:18.064Z,1.80
2019-05-18T18:02:48.307Z,1.70
2019-05-18T18:05:17.777Z,1.90
2019-05-18T18:07:47.318Z,2.47
2019-05-18T18:10:17.975Z,1.93
2019-05-18T18:12:47.519Z,1.93
2019-05-18T18:15:16.833Z,2.10
2019-05-18T18:17:46.901Z,2.57
2019-05-18T18:20:16.677Z,2.33
2019-05-18T18:22:45.911Z,2.27
2019-05-18T18:25:15.635Z,1.97
2019-05-18T18:27:45.138Z,2.60
2019-05-18T18:30:16.143Z,2.27
2019-05-18T18:32:45.820Z,1.90
2019-05-18T18:35:15.540Z,2.13
2019-05-18T18:37:44.901Z,2.27
2019-05-18T18:40:14.558Z,2.00
2019-05-18T18:42:44.181Z,2.40
2019-05-18T18:45:31.928Z,3.93
2019-05-18T18:48:01.301Z,4.35
2019-05-18T18:50:39.486Z,6.23
2019-05-18T18:53:08.934Z,3.07
2019-05-18T18:55:40.143Z,4.70
2019-05-18T18:58:09.415Z,3.70
2019-05-18T19:00:38.764Z,2.40
2019-05-18T19:03:08.135Z,2.80
2019-05-18T19:05:48.588Z,3.57
2019-05-18T19:08:18.829Z,3.43
2019-05-18T19:10:48.887Z,2.70
2019-05-18T19:13:21.385Z,2.80
2019-05-18T19:15:50.715Z,2.73
2019-05-18T19:18:20.269Z,2.80
2019-05-18T19:20:49.595Z,2.50
2019-05-18T19:23:18.993Z,2.63
2019-05-18T19:25:48.732Z,3.40
2019-05-18T19:28:18.414Z,5.07
2019-05-18T19:30:50.313Z,2.83
2019-05-18T19:33:19.661Z,3.43
2019-05-18T19:35:49.028Z,6.47
2019-05-18T19:38:18.441Z,4.12
2019-05-18T19:40:47.665Z,3.30
2019-05-18T19:43:16.959Z,3.10
2019-05-18T19:45:46.529Z,3.87
2019-05-18T19:48:16.149Z,3.53
2019-05-18T19:50:48.004Z,3.33
2019-05-18T19:53:17.689Z,3.87
2019-05-18T19:55:47.896Z,3.57
2019-05-18T19:58:17.244Z,3.70
2019-05-18T20:00:46.860Z,3.90
2019-05-18T20:03:16.468Z,3.87
2019-05-18T20:05:45.847Z,4.43
2019-05-18T20:08:15.000Z,4.20
2019-05-18T20:10:46.840Z,3.72
2019-05-18T20:13:17.104Z,3.33
2019-05-18T20:15:46.594Z,3.77
2019-05-18T20:18:15.832Z,10.23
2019-05-18T20:20:45.105Z,3.70
2019-05-18T20:23:14.390Z,3.73
2019-05-18T20:25:43.831Z,4.70
2019-05-18T20:28:23.294Z,3.10
2019-05-18T20:30:44.139Z,3.98
2019-05-18T20:33:14.172Z,3.75
2019-05-18T20:35:43.514Z,3.87
2019-05-18T20:38:12.898Z,3.40
2019-05-18T20:40:42.115Z,3.53
2019-05-18T20:43:11.380Z,3.43
2019-05-18T20:45:40.664Z,3.90
2019-05-18T20:48:10.019Z,3.90
2019-05-18T20:50:39.356Z,3.90
2019-05-18T20:53:08.835Z,2.90
2019-05-18T20:55:38.072Z,3.35
2019-05-18T20:58:07.258Z,3.70
2019-05-18T21:00:45.863Z,6.20
2019-05-18T21:03:16.696Z,4.07
2019-05-18T21:05:47.448Z,3.27
2019-05-18T21:08:19.418Z,4.50
2019-05-18T21:10:56.995Z,4.67
2019-05-18T21:13:27.981Z,3.65
2019-05-18T21:15:57.867Z,5.60
2019-05-18T21:18:27.255Z,4.77
2019-05-18T21:20:56.473Z,4.37
2019-05-18T21:23:25.964Z,4.50
2019-05-18T21:25:55.129Z,4.67
2019-05-18T21:28:24.599Z,4.43
2019-05-18T21:30:55.028Z,5.60
2019-05-18T21:33:25.135Z,7.00
2019-05-18T21:35:56.075Z,6.13
2019-05-18T21:38:26.302Z,7.73
2019-05-18T21:40:55.877Z,7.40
2019-05-18T21:43:25.383Z,7.10
2019-05-18T21:45:54.720Z,7.12
2019-05-18T21:48:23.887Z,6.63
2019-05-18T21:51:09.783Z,7.00
2019-05-18T21:53:39.017Z,12.13
2019-05-18T21:56:13.836Z,10.60
2019-05-18T21:58:46.265Z,8.80
2019-05-18T22:01:18.428Z,10.33
2019-05-18T22:03:58.284Z,8.90
2019-05-18T22:06:30.385Z,7.97
2019-05-18T22:09:00.636Z,7.40
2019-05-18T22:11:31.251Z,7.20
2019-05-18T22:14:00.481Z,6.30
2019-05-18T22:16:33.610Z,7.20
2019-05-18T22:19:04.930Z,6.10
2019-05-18T22:21:40.357Z,6.95
2019-05-18T22:24:09.624Z,6.87
2019-05-18T22:26:39.004Z,6.73
2019-05-18T22:29:08.748Z,5.83
2019-05-18T22:31:39.263Z,7.07
2019-05-18T22:34:14.038Z,8.90
2019-05-18T22:36:46.245Z,7.30
2019-05-18T22:39:20.502Z,6.40
2019-05-18T22:41:53.517Z,6.47
2019-05-18T22:44:22.804Z,6.63
2019-05-18T22:46:53.354Z,5.73
2019-05-18T22:49:22.926Z,6.20
2019-05-18T22:51:58.213Z,6.40
2019-05-18T22:54:29.321Z,6.00
2019-05-18T22:56:58.573Z,6.40
2019-05-18T22:59:29.394Z,9.70
2019-05-18T23:01:59.149Z,6.47
2019-05-18T23:04:37.223Z,5.60
2019-05-18T23:07:09.744Z,5.60
2019-05-18T23:09:42.809Z,6.90
2019-05-18T23:12:13.436Z,5.63
2019-05-18T23:14:42.996Z,6.10
2019-05-18T23:17:21.701Z,6.03
2019-05-18T23:19:51.849Z,7.12
2019-05-18T23:22:21.068Z,5.50
2019-05-18T23:24:50.370Z,6.03
2019-05-18T23:27:22.793Z,6.43
2019-05-18T23:29:57.705Z,7.47
2019-05-18T23:32:26.943Z,7.53
2019-05-18T23:34:56.956Z,6.93
2019-05-18T23:37:32.793Z,8.00
2019-05-18T23:40:10.729Z,7.43
2019-05-18T23:42:46.773Z,7.37
2019-05-18T23:45:16.002Z,9.23
2019-05-18T23:47:45.548Z,8.90
2019-05-18T23:50:19.301Z,8.97
2019-05-18T23:52:53.820Z,9.80
2019-05-18T23:55:29.447Z,9.10
2019-05-18T23:58:05.953Z,10.07
